createdAt,value
2016-10-18T00:00:43.369Z,19.1
2016-10-18T00:01:43.676Z,18.97
2016-10-18T00:02:43.658Z,18.9
2016-10-18T00:03:43.633Z,18.75
2016-10-18T00:04:43.622Z,18.69
2016-10-18T00:05:43.606Z,18.75
2016-10-18T00:06:43.593Z,18.62
2016-10-18T00:07:43.577Z,18.59
2016-10-18T00:08:43.552Z,18.65
2016-10-18T00:09:43.542Z,18.54
2016-10-18T00:10:43.214Z,18.49
2016-10-18T00:11:43.510Z,18.54
2016-10-18T00:12:43.493Z,18.51
2016-10-18T00:13:43.164Z,18.53
2016-10-18T00:14:43.449Z,18.54
2016-10-18T00:15:43.439Z,18.51
2016-10-18T00:16:43.422Z,18.42
2016-10-18T00:17:43.102Z,18.38
2016-10-18T00:18:43.075Z,18.34
2016-10-18T00:19:43.380Z,18.34
2016-10-18T00:20:43.359Z,18.34
2016-10-18T00:21:43.353Z,18.28
2016-10-18T00:22:43.333Z,18.25
2016-10-18T00:23:43.310Z,18.26
2016-10-18T00:24:43.298Z,18.26
2016-10-18T00:25:43.281Z,18.19
2016-10-18T00:26:43.262Z,18.2
2016-10-18T00:27:43.241Z,18.16
2016-10-18T00:28:43.231Z,18.23
2016-10-18T00:29:42.899Z,18.28
2016-10-18T00:30:42.879Z,18.26
2016-10-18T00:31:43.181Z,18.23
2016-10-18T00:32:43.169Z,18.2
2016-10-18T00:33:43.148Z,18.17
2016-10-18T00:34:43.127Z,18.25
2016-10-18T00:35:43.118Z,18.16
2016-10-18T00:36:43.136Z,18.16
2016-10-18T00:37:43.072Z,18.19
2016-10-18T00:38:43.055Z,18.16
2016-10-18T00:39:43.053Z,18.19
2016-10-18T00:40:43.028Z,18.19
2016-10-18T00:41:43.017Z,18.23
2016-10-18T00:42:42.995Z,18.2
2016-10-18T00:43:42.977Z,18.11
2016-10-18T00:44:42.964Z,18.09
2016-10-18T00:45:42.947Z,18.07
2016-10-18T00:46:42.925Z,18.01
2016-10-18T00:47:42.589Z,17.99
2016-10-18T00:48:42.889Z,17.98
2016-10-18T00:49:42.878Z,17.96
2016-10-18T00:50:42.555Z,18.02
2016-10-18T00:51:42.841Z,17.94
2016-10-18T00:52:42.835Z,18.01
2016-10-18T00:53:42.495Z,17.94
2016-10-18T00:54:42.788Z,17.96
2016-10-18T00:55:42.784Z,17.91
2016-10-18T00:56:42.758Z,17.98
2016-10-18T00:57:42.745Z,17.95
2016-10-18T00:58:42.724Z,17.87
2016-10-18T00:59:42.713Z,17.79
2016-10-18T01:00:42.376Z,17.77
2016-10-18T01:01:42.677Z,17.8
2016-10-18T01:02:42.662Z,17.92
2016-10-18T01:03:42.346Z,17.91
2016-10-18T01:04:42.310Z,17.8
2016-10-18T01:05:42.612Z,17.76
2016-10-18T01:06:42.602Z,17.74
2016-10-18T01:07:42.581Z,17.74
2016-10-18T01:08:42.245Z,17.63
2016-10-18T01:09:42.550Z,17.76
2016-10-18T01:10:42.523Z,17.8
2016-10-18T01:11:42.515Z,17.83
2016-10-18T01:12:42.495Z,17.71
2016-10-18T01:13:42.483Z,17.66
2016-10-18T01:14:42.462Z,17.58
2016-10-18T01:15:42.440Z,17.63
2016-10-18T01:16:42.426Z,17.46
2016-10-18T01:17:42.400Z,17.6
2016-10-18T01:18:42.074Z,17.53
2016-10-18T01:19:42.380Z,17.62
2016-10-18T01:20:42.370Z,17.58
2016-10-18T01:21:42.339Z,17.7
2016-10-18T01:22:42.009Z,17.73
2016-10-18T01:23:42.313Z,17.66
2016-10-18T01:24:42.295Z,17.84
2016-10-18T01:25:42.280Z,17.74
2016-10-18T01:26:41.943Z,17.7
2016-10-18T01:27:42.242Z,17.77
2016-10-18T01:28:42.222Z,17.58
2016-10-18T01:29:41.887Z,17.62
2016-10-18T01:30:41.883Z,17.62
2016-10-18T01:31:42.181Z,17.55
2016-10-18T01:32:42.158Z,17.53
2016-10-18T01:33:42.175Z,17.45
2016-10-18T01:34:42.117Z,17.46
2016-10-18T01:35:42.112Z,17.55
2016-10-18T01:36:42.097Z,17.86
2016-10-18T01:37:42.076Z,18.04
2016-10-18T01:38:41.736Z,18.21
2016-10-18T01:39:41.723Z,18.39
2016-10-18T01:40:41.711Z,18.5
2016-10-18T01:41:41.685Z,18.65
2016-10-18T01:42:41.988Z,18.66
2016-10-18T01:43:41.970Z,18.76
2016-10-18T01:44:41.639Z,18.82
2016-10-18T01:45:41.932Z,18.89
2016-10-18T01:46:41.605Z,18.84
2016-10-18T01:47:41.590Z,18.97
2016-10-18T01:48:41.888Z,18.96
2016-10-18T01:49:41.549Z,18.96
2016-10-18T01:50:41.536Z,18.97
2016-10-18T01:51:41.829Z,19.12
2016-10-18T01:52:41.817Z,19.12
2016-10-18T01:53:41.804Z,19.13
2016-10-18T01:54:41.468Z,19.12
2016-10-18T01:55:41.448Z,19.2
2016-10-18T01:56:41.748Z,19.12
2016-10-18T01:57:41.727Z,19.17
2016-10-18T01:58:41.716Z,19.21
2016-10-18T01:59:41.703Z,19.15
2016-10-18T02:00:41.686Z,19.23
2016-10-18T02:01:41.665Z,19.25
2016-10-18T02:02:41.641Z,19.1
2016-10-18T02:03:41.632Z,19.17
2016-10-18T02:04:41.621Z,19.15
2016-10-18T02:05:41.604Z,19.2
2016-10-18T02:06:41.264Z,19.15
2016-10-18T02:07:41.569Z,19.21
2016-10-18T02:08:41.540Z,19.25
2016-10-18T02:09:41.529Z,19.35
2016-10-18T02:10:41.511Z,19.15
2016-10-18T02:11:41.183Z,19.24
2016-10-18T02:12:41.159Z,19.2
2016-10-18T02:13:41.458Z,19.23
2016-10-18T02:14:41.135Z,19.25
2016-10-18T02:15:41.420Z,19.2
2016-10-18T02:16:41.089Z,19.27
2016-10-18T02:17:41.425Z,19.28
2016-10-18T02:18:41.376Z,19.25
2016-10-18T02:19:41.398Z,19.21
2016-10-18T02:20:41.385Z,19.3
2016-10-18T02:21:41.010Z,19.24
2016-10-18T02:22:41.305Z,19.24
2016-10-18T02:23:40.985Z,19.17
2016-10-18T02:24:41.276Z,19.31
2016-10-18T02:25:41.268Z,19.25
2016-10-18T02:26:40.608Z,19.25
2016-10-18T02:27:41.229Z,19.28
2016-10-18T02:28:40.888Z,19.27
2016-10-18T02:29:40.878Z,19.27
2016-10-18T02:30:41.181Z,19.23
2016-10-18T02:31:41.158Z,19.32
2016-10-18T02:32:40.823Z,19.25
2016-10-18T02:33:41.126Z,19.32
2016-10-18T02:34:41.111Z,19.25
2016-10-18T02:35:41.105Z,19.24
2016-10-18T02:36:41.078Z,19.28
2016-10-18T02:37:41.051Z,19.31
2016-10-18T02:38:41.062Z,19.3
2016-10-18T02:39:41.020Z,19.27
2016-10-18T02:40:40.690Z,19.35
2016-10-18T02:41:40.981Z,19.32
2016-10-18T02:42:40.984Z,19.35
2016-10-18T02:43:40.948Z,19.24
2016-10-18T02:44:40.948Z,19.27
2016-10-18T02:45:40.921Z,19.31
2016-10-18T02:46:40.908Z,19.27
2016-10-18T02:47:40.896Z,19.38
2016-10-18T02:48:40.881Z,19.35
2016-10-18T02:49:40.856Z,19.42
2016-10-18T02:50:40.845Z,19.34
2016-10-18T02:51:40.821Z,19.3
2016-10-18T02:52:40.811Z,19.4
2016-10-18T02:53:40.792Z,19.28
2016-10-18T02:54:40.460Z,19.3
2016-10-18T02:55:40.439Z,19.45
2016-10-18T02:56:40.736Z,19.35
2016-10-18T02:57:40.719Z,19.31
2016-10-18T02:58:40.702Z,19.4
2016-10-18T02:59:40.681Z,19.42
2016-10-18T03:00:40.349Z,19.27
2016-10-18T03:01:40.658Z,19.34
2016-10-18T03:02:40.634Z,19.35
2016-10-18T03:03:40.621Z,19.32
2016-10-18T03:04:40.604Z,19.38
2016-10-18T03:05:40.269Z,19.25
2016-10-18T03:06:40.256Z,19.32
2016-10-18T03:07:40.554Z,19.39
2016-10-18T03:08:40.220Z,19.35
2016-10-18T03:09:40.512Z,19.31
2016-10-18T03:10:40.497Z,19.35
2016-10-18T03:11:40.488Z,19.35
2016-10-18T03:12:40.472Z,19.32
2016-10-18T03:13:40.453Z,19.34
2016-10-18T03:14:40.436Z,19.42
2016-10-18T03:15:40.427Z,19.35
2016-10-18T03:16:40.087Z,19.35
2016-10-18T03:17:40.068Z,19.34
2016-10-18T03:18:40.374Z,19.45
2016-10-18T03:19:40.352Z,19.31
2016-10-18T03:20:40.331Z,19.38
2016-10-18T03:21:40.319Z,19.34
2016-10-18T03:22:40.298Z,19.4
2016-10-18T03:23:40.323Z,19.28
2016-10-18T03:24:40.264Z,19.34
2016-10-18T03:25:40.253Z,19.42
2016-10-18T03:26:40.275Z,19.45
2016-10-18T03:27:40.214Z,19.4
2016-10-18T03:28:40.199Z,19.28
2016-10-18T03:29:40.188Z,19.45
2016-10-18T03:30:40.169Z,19.3
2016-10-18T03:31:40.153Z,19.3
2016-10-18T03:32:39.818Z,19.42
2016-10-18T03:33:40.119Z,19.42
2016-10-18T03:34:40.101Z,19.31
2016-10-18T03:35:39.771Z,19.42
2016-10-18T03:36:40.073Z,19.42
2016-10-18T03:37:40.050Z,19.34
2016-10-18T03:38:40.035Z,19.34
2016-10-18T03:39:40.015Z,19.46
2016-10-18T03:40:40.004Z,19.42
2016-10-18T03:41:39.981Z,19.34
2016-10-18T03:42:39.974Z,19.43
2016-10-18T03:43:39.948Z,19.35
2016-10-18T03:44:39.621Z,19.42
2016-10-18T03:45:39.610Z,19.39
2016-10-18T03:46:39.913Z,19.28
2016-10-18T03:47:39.887Z,19.42
2016-10-18T03:48:39.242Z,19.46
2016-10-18T03:49:39.897Z,19.43
2016-10-18T03:50:39.831Z,19.46
2016-10-18T03:51:39.817Z,19.43
2016-10-18T03:52:39.797Z,19.42
2016-10-18T03:53:39.492Z,19.42
2016-10-18T03:54:39.774Z,19.43
2016-10-18T03:55:39.792Z,19.46
2016-10-18T03:56:39.742Z,19.46
2016-10-18T03:57:39.719Z,19.49
2016-10-18T03:58:39.740Z,19.31
2016-10-18T03:59:39.375Z,19.43
2016-10-18T04:00:39.665Z,19.43
2016-10-18T04:01:39.651Z,19.39
2016-10-18T04:02:39.632Z,19.39
2016-10-18T04:03:39.614Z,19.38
2016-10-18T04:04:39.594Z,19.46
2016-10-18T04:05:39.576Z,19.52
2016-10-18T04:06:39.561Z,19.53
2016-10-18T04:07:39.558Z,19.62
2016-10-18T04:08:39.535Z,19.61
2016-10-18T04:09:39.511Z,19.75
2016-10-18T04:10:39.502Z,19.67
2016-10-18T04:11:39.483Z,19.71
2016-10-18T04:12:39.468Z,19.82
2016-10-18T04:13:39.146Z,19.78
2016-10-18T04:14:39.115Z,19.78
2016-10-18T04:15:39.409Z,19.82
2016-10-18T04:16:39.401Z,19.89
2016-10-18T04:17:39.389Z,19.85
2016-10-18T04:18:39.046Z,19.87
2016-10-18T04:19:39.351Z,19.9
2016-10-18T04:20:39.331Z,20.01
2016-10-18T04:21:39.319Z,19.92
2016-10-18T04:22:39.301Z,19.97
2016-10-18T04:23:39.288Z,19.95
2016-10-18T04:24:39.263Z,19.98
2016-10-18T04:25:39.251Z,20.01
2016-10-18T04:26:39.238Z,20.1
2016-10-18T04:27:39.219Z,20.17
2016-10-18T04:28:39.206Z,20.1
2016-10-18T04:29:38.870Z,20.07
2016-10-18T04:30:38.544Z,20.17
2016-10-18T04:31:39.146Z,20.05
2016-10-18T04:32:38.813Z,20.05
2016-10-18T04:33:39.115Z,20.07
2016-10-18T04:34:39.102Z,20.1
2016-10-18T04:35:39.091Z,20.07
2016-10-18T04:36:39.064Z,20.1
2016-10-18T04:37:39.048Z,20.17
2016-10-18T04:38:39.045Z,20.12
2016-10-18T04:39:39.024Z,20.15
2016-10-18T04:40:39.001Z,20.08
2016-10-18T04:41:38.991Z,20.1
2016-10-18T04:42:38.645Z,20.17
2016-10-18T04:43:38.637Z,20.16
2016-10-18T04:44:38.934Z,20.13
2016-10-18T04:45:38.919Z,20.17
2016-10-18T04:46:38.909Z,20.12
2016-10-18T04:47:38.890Z,20.13
2016-10-18T04:48:38.866Z,20.17
2016-10-18T04:49:38.856Z,20.2
2016-10-18T04:50:38.838Z,20.19
2016-10-18T04:51:38.855Z,20.16
2016-10-18T04:52:38.808Z,20.07
2016-10-18T04:53:38.790Z,20.12
2016-10-18T04:54:38.458Z,20.13
2016-10-18T04:55:38.757Z,20.16
2016-10-18T04:56:38.420Z,20.19
2016-10-18T04:57:38.719Z,20.23
2016-10-18T04:58:38.708Z,20.16
2016-10-18T04:59:38.731Z,20.22
2016-10-18T05:00:38.670Z,20.2
2016-10-18T05:01:38.338Z,20.2
2016-10-18T05:02:38.640Z,20.17
2016-10-18T05:03:38.623Z,20.22
2016-10-18T05:04:38.613Z,20.26
2016-10-18T05:05:38.274Z,20.23
2016-10-18T05:06:38.570Z,20.33
2016-10-18T05:07:38.547Z,20.27
2016-10-18T05:08:38.540Z,20.31
2016-10-18T05:09:38.520Z,20.33
2016-10-18T05:10:38.191Z,20.26
2016-10-18T05:11:38.487Z,20.26
2016-10-18T05:12:38.162Z,20.27
2016-10-18T05:13:38.448Z,20.33
2016-10-18T05:14:38.441Z,20.3
2016-10-18T05:15:38.424Z,20.34
2016-10-18T05:16:38.403Z,20.31
2016-10-18T05:17:38.397Z,20.37
2016-10-18T05:18:38.414Z,20.33
2016-10-18T05:19:38.358Z,20.34
2016-10-18T05:20:38.341Z,20.3
2016-10-18T05:21:38.326Z,20.22
2016-10-18T05:22:38.304Z,20.31
2016-10-18T05:23:38.292Z,20.31
2016-10-18T05:24:38.306Z,20.37
2016-10-18T05:25:38.263Z,20.33
2016-10-18T05:26:38.246Z,20.33
2016-10-18T05:27:38.224Z,20.31
2016-10-18T05:28:38.221Z,20.34
2016-10-18T05:29:38.194Z,20.34
2016-10-18T05:30:37.860Z,20.38
2016-10-18T05:31:38.153Z,20.34
2016-10-18T05:32:37.836Z,20.38
2016-10-18T05:33:38.131Z,20.37
2016-10-18T05:34:37.797Z,20.42
2016-10-18T05:35:38.094Z,20.38
2016-10-18T05:36:38.085Z,20.3
2016-10-18T05:37:38.068Z,20.38
2016-10-18T05:38:38.095Z,20.46
2016-10-18T05:39:38.041Z,20.38
2016-10-18T05:40:38.012Z,20.37
2016-10-18T05:41:38.007Z,20.35
2016-10-18T05:42:37.977Z,20.38
2016-10-18T05:43:37.962Z,20.31
2016-10-18T05:44:37.951Z,20.38
2016-10-18T05:45:37.938Z,20.33
2016-10-18T05:46:37.913Z,20.35
2016-10-18T05:47:37.902Z,20.33
2016-10-18T05:48:37.894Z,20.31
2016-10-18T05:49:37.865Z,20.35
2016-10-18T05:50:37.848Z,20.37
2016-10-18T05:51:37.837Z,20.41
2016-10-18T05:52:37.862Z,20.46
2016-10-18T05:53:37.796Z,20.5
2016-10-18T05:54:37.471Z,20.46
2016-10-18T05:55:37.774Z,20.46
2016-10-18T05:56:37.442Z,20.48
2016-10-18T05:57:37.733Z,20.38
2016-10-18T05:58:37.726Z,20.46
2016-10-18T05:59:37.709Z,20.44
2016-10-18T06:00:37.685Z,20.44
2016-10-18T06:01:37.668Z,20.38
2016-10-18T06:02:37.667Z,20.5
2016-10-18T06:03:37.646Z,20.48
2016-10-18T06:04:37.629Z,20.51
2016-10-18T06:05:37.605Z,20.4
2016-10-18T06:06:37.592Z,20.48
2016-10-18T06:07:37.573Z,20.48
2016-10-18T06:08:37.574Z,20.48
2016-10-18T06:09:37.235Z,20.44
2016-10-18T06:10:37.209Z,20.48
2016-10-18T06:11:37.203Z,20.46
2016-10-18T06:12:37.501Z,20.42
2016-10-18T06:13:37.484Z,20.46
2016-10-18T06:14:37.467Z,20.44
2016-10-18T06:15:37.448Z,20.46
2016-10-18T06:16:37.432Z,20.44
2016-10-18T06:17:37.419Z,20.46
2016-10-18T06:18:37.088Z,20.48
2016-10-18T06:19:37.083Z,20.42
2016-10-18T06:20:37.368Z,20.41
2016-10-18T06:21:37.350Z,20.4
2016-10-18T06:22:37.041Z,20.44
2016-10-18T06:23:37.006Z,20.44
2016-10-18T06:24:36.989Z,20.5
2016-10-18T06:25:37.282Z,20.42
2016-10-18T06:26:37.269Z,20.46
2016-10-18T06:27:37.253Z,20.46
2016-10-18T06:28:37.234Z,20.54
2016-10-18T06:29:37.231Z,20.46
2016-10-18T06:30:37.244Z,20.48
2016-10-18T06:31:36.874Z,20.48
2016-10-18T06:32:37.173Z,20.54
2016-10-18T06:33:37.157Z,20.53
2016-10-18T06:34:37.139Z,20.53
2016-10-18T06:35:37.140Z,20.53
2016-10-18T06:36:36.798Z,20.44
2016-10-18T06:37:37.095Z,20.1
2016-10-18T06:38:37.083Z,19.82
2016-10-18T06:39:37.067Z,19.86
2016-10-18T06:40:37.078Z,19.79
2016-10-18T06:41:37.023Z,19.67
2016-10-18T06:42:37.009Z,19.62
2016-10-18T06:43:36.685Z,19.46
2016-10-18T06:44:36.979Z,19.27
2016-10-18T06:45:36.960Z,19.28
2016-10-18T06:46:36.951Z,19.39
2016-10-18T06:47:36.931Z,19.46
2016-10-18T06:48:36.917Z,19.46
2016-10-18T06:49:36.902Z,19.43
2016-10-18T06:50:36.880Z,19.42
2016-10-18T06:51:36.867Z,19.47
2016-10-18T06:52:36.843Z,19.42
2016-10-18T06:53:36.838Z,19.43
2016-10-18T06:54:36.818Z,19.28
2016-10-18T06:55:36.806Z,19.35
2016-10-18T06:56:36.467Z,19.39
2016-10-18T06:57:36.459Z,19.39
2016-10-18T06:58:36.750Z,19.39
2016-10-18T06:59:36.103Z,19.35
2016-10-18T07:00:36.722Z,19.5
2016-10-18T07:01:36.709Z,19.6
2016-10-18T07:02:36.687Z,19.78
2016-10-18T07:03:36.672Z,19.92
2016-10-18T07:04:36.651Z,20.17
2016-10-18T07:05:36.634Z,20.16
2016-10-18T07:06:36.628Z,20.2
2016-10-18T07:07:36.289Z,20.34
2016-10-18T07:08:36.602Z,20.37
2016-10-18T07:09:36.263Z,20.42
2016-10-18T07:10:36.562Z,20.42
2016-10-18T07:11:36.539Z,20.44
2016-10-18T07:12:36.573Z,20.53
2016-10-18T07:13:36.190Z,20.5
2016-10-18T07:14:36.486Z,20.61
2016-10-18T07:15:36.477Z,20.6
2016-10-18T07:16:36.154Z,20.64
2016-10-18T07:17:36.444Z,20.58
2016-10-18T07:18:36.427Z,20.68
2016-10-18T07:19:35.781Z,20.61
2016-10-18T07:20:36.387Z,20.6
2016-10-18T07:21:36.387Z,20.69
2016-10-18T07:22:36.372Z,20.64
2016-10-18T07:23:36.353Z,20.69
2016-10-18T07:24:36.324Z,20.63
2016-10-18T07:25:36.312Z,20.72
2016-10-18T07:26:36.337Z,20.68
2016-10-18T07:27:36.286Z,20.71
2016-10-18T07:28:36.267Z,20.75
2016-10-18T07:29:36.251Z,20.75
2016-10-18T07:30:36.228Z,20.72
2016-10-18T07:31:36.209Z,20.78
2016-10-18T07:32:36.198Z,20.78
2016-10-18T07:33:36.184Z,20.73
2016-10-18T07:34:36.173Z,20.78
2016-10-18T07:35:36.146Z,20.76
2016-10-18T07:36:36.169Z,20.72
2016-10-18T07:37:36.121Z,20.81
2016-10-18T07:38:36.108Z,20.76
2016-10-18T07:39:36.090Z,20.75
2016-10-18T07:40:35.758Z,20.71
2016-10-18T07:41:36.054Z,20.73
2016-10-18T07:42:36.039Z,20.76
2016-10-18T07:43:36.061Z,20.73
2016-10-18T07:44:36.023Z,20.73
2016-10-18T07:45:35.996Z,20.72
2016-10-18T07:46:35.970Z,20.73
2016-10-18T07:47:35.960Z,20.79
2016-10-18T07:48:35.942Z,20.78
2016-10-18T07:49:35.921Z,20.79
2016-10-18T07:50:35.592Z,20.66
2016-10-18T07:51:35.888Z,20.79
2016-10-18T07:52:35.879Z,20.69
2016-10-18T07:53:35.543Z,20.76
2016-10-18T07:54:35.847Z,20.76
2016-10-18T07:55:35.832Z,20.75
2016-10-18T07:56:35.818Z,20.75
2016-10-18T07:57:35.483Z,20.71
2016-10-18T07:58:35.472Z,20.73
2016-10-18T07:59:35.776Z,20.76
2016-10-18T08:00:35.438Z,20.72
2016-10-18T08:01:35.738Z,20.76
2016-10-18T08:02:35.769Z,20.75
2016-10-18T08:03:35.392Z,20.69
2016-10-18T08:04:35.688Z,20.79
2016-10-18T08:05:35.667Z,20.75
2016-10-18T08:06:35.339Z,20.72
2016-10-18T08:07:35.685Z,20.81
2016-10-18T08:08:35.622Z,20.78
2016-10-18T08:09:35.289Z,20.73
2016-10-18T08:10:35.594Z,20.75
2016-10-18T08:11:35.577Z,20.73
2016-10-18T08:12:35.555Z,20.76
2016-10-18T08:13:34.930Z,20.79
2016-10-18T08:14:35.523Z,20.78
2016-10-18T08:15:35.193Z,20.78
2016-10-18T08:16:35.518Z,20.73
2016-10-18T08:17:35.489Z,20.78
2016-10-18T08:18:35.154Z,20.63
2016-10-18T08:19:35.467Z,20.71
2016-10-18T08:20:35.431Z,20.73
2016-10-18T08:21:35.450Z,20.73
2016-10-18T08:22:35.101Z,20.76
2016-10-18T08:23:35.402Z,20.63
2016-10-18T08:24:35.401Z,20.63
2016-10-18T08:25:35.364Z,20.63
2016-10-18T08:26:35.014Z,20.71
2016-10-18T08:27:35.318Z,20.69
2016-10-18T08:28:35.310Z,20.64
2016-10-18T08:29:35.287Z,20.71
2016-10-18T08:30:35.267Z,19.72
2016-10-18T08:31:35.274Z,19.12
2016-10-18T08:32:35.245Z,18.6
2016-10-18T08:33:35.224Z,18.35
2016-10-18T08:34:35.212Z,18.11
2016-10-18T08:35:35.190Z,18.1
2016-10-18T08:36:35.181Z,18.53
2016-10-18T08:37:35.161Z,18.9
2016-10-18T08:38:35.152Z,19.42
2016-10-18T08:39:35.129Z,19.71
2016-10-18T08:40:35.110Z,19.85
2016-10-18T08:41:35.092Z,20.1
2016-10-18T08:42:35.075Z,20.19
2016-10-18T08:43:34.751Z,20.3
2016-10-18T08:44:35.031Z,20.44
2016-10-18T08:45:35.033Z,20.48
2016-10-18T08:46:35.009Z,20.5
2016-10-18T08:47:34.999Z,20.58
2016-10-18T08:48:34.676Z,20.6
2016-10-18T08:49:34.657Z,20.71
2016-10-18T08:50:34.640Z,20.72
2016-10-18T08:51:34.617Z,20.72
2016-10-18T08:52:34.919Z,20.76
2016-10-18T08:53:34.903Z,20.75
2016-10-18T08:54:34.884Z,20.81
2016-10-18T08:55:34.869Z,20.75
2016-10-18T08:56:34.849Z,20.78
2016-10-18T08:57:34.831Z,20.85
2016-10-18T08:58:34.822Z,20.83
2016-10-18T08:59:34.493Z,20.87
2016-10-18T09:00:34.476Z,20.85
2016-10-18T09:01:34.769Z,20.83
2016-10-18T09:02:34.749Z,20.85
2016-10-18T09:03:34.778Z,20.94
2016-10-18T09:04:34.725Z,20.85
2016-10-18T09:05:34.708Z,20.91
2016-10-18T09:06:34.694Z,20.85
2016-10-18T09:07:34.689Z,20.85
2016-10-18T09:08:34.346Z,20.93
2016-10-18T09:09:34.649Z,20.85
2016-10-18T09:10:34.625Z,20.88
2016-10-18T09:11:34.290Z,20.87
2016-10-18T09:12:34.594Z,20.87
2016-10-18T09:13:34.266Z,20.85
2016-10-18T09:14:34.595Z,20.91
2016-10-18T09:15:34.551Z,20.91
2016-10-18T09:16:34.533Z,20.87
2016-10-18T09:17:34.518Z,20.9
2016-10-18T09:18:34.191Z,20.9
2016-10-18T09:19:34.165Z,20.87
2016-10-18T09:20:34.468Z,20.88
2016-10-18T09:21:34.451Z,20.9
2016-10-18T09:22:34.116Z,20.87
2016-10-18T09:23:34.454Z,20.87
2016-10-18T09:24:34.403Z,20.88
2016-10-18T09:25:34.384Z,20.9
2016-10-18T09:26:34.055Z,20.88
2016-10-18T09:27:34.040Z,20.88
2016-10-18T09:28:34.341Z,20.83
2016-10-18T09:29:34.376Z,20.93
2016-10-18T09:30:33.988Z,20.83
2016-10-18T09:31:34.293Z,20.9
2016-10-18T09:32:34.274Z,20.91
2016-10-18T09:33:33.959Z,20.87
2016-10-18T09:34:34.244Z,20.9
2016-10-18T09:35:34.252Z,20.85
2016-10-18T09:36:34.214Z,20.88
2016-10-18T09:37:33.878Z,20.88
2016-10-18T09:38:33.861Z,20.88
2016-10-18T09:39:34.162Z,20.83
2016-10-18T09:40:34.146Z,20.9
2016-10-18T09:41:34.134Z,20.87
2016-10-18T09:42:34.119Z,20.9
2016-10-18T09:43:34.126Z,20.9
2016-10-18T09:44:34.078Z,20.9
2016-10-18T09:45:33.758Z,20.9
2016-10-18T09:46:33.738Z,20.88
2016-10-18T09:47:34.033Z,20.85
2016-10-18T09:48:33.704Z,20.85
2016-10-18T09:49:34.025Z,20.85
2016-10-18T09:50:34.026Z,20.98
2016-10-18T09:51:33.985Z,20.94
2016-10-18T09:52:33.963Z,20.88
2016-10-18T09:53:33.946Z,20.85
2016-10-18T09:54:33.975Z,20.93
2016-10-18T09:55:33.912Z,20.9
2016-10-18T09:56:33.906Z,20.98
2016-10-18T09:57:34.067Z,20.87
2016-10-18T09:58:33.876Z,20.97
2016-10-18T09:59:33.887Z,20.91
2016-10-18T10:00:33.841Z,20.91
2016-10-18T10:01:33.812Z,20.9
2016-10-18T10:02:33.801Z,20.9
2016-10-18T10:03:33.788Z,20.97
2016-10-18T10:04:33.771Z,20.96
2016-10-18T10:05:33.752Z,20.93
2016-10-18T10:06:33.428Z,20.93
2016-10-18T10:07:33.770Z,20.94
2016-10-18T10:08:33.708Z,20.94
2016-10-18T10:09:33.694Z,20.93
2016-10-18T10:10:33.682Z,20.94
2016-10-18T10:11:33.663Z,20.97
2016-10-18T10:12:33.323Z,20.93
2016-10-18T10:13:33.319Z,20.94
2016-10-18T10:14:33.294Z,20.91
2016-10-18T10:15:33.596Z,20.87
2016-10-18T10:16:33.588Z,20.9
2016-10-18T10:17:33.565Z,20.91
2016-10-18T10:18:33.553Z,20.97
2016-10-18T10:19:33.222Z,21
2016-10-18T10:20:33.204Z,20.91
2016-10-18T10:21:33.195Z,20.9
2016-10-18T10:22:33.500Z,20.93
2016-10-18T10:23:33.155Z,21.01
2016-10-18T10:24:33.464Z,20.97
2016-10-18T10:25:33.445Z,20.87
2016-10-18T10:26:33.437Z,20.93
2016-10-18T10:27:33.409Z,20.97
2016-10-18T10:28:33.401Z,20.88
2016-10-18T10:29:33.379Z,20.97
2016-10-18T10:30:33.365Z,20.97
2016-10-18T10:31:33.348Z,20.91
2016-10-18T10:32:32.697Z,20.87
2016-10-18T10:33:33.314Z,20.97
2016-10-18T10:34:33.299Z,20.91
2016-10-18T10:35:32.970Z,20.96
2016-10-18T10:36:33.270Z,20.94
2016-10-18T10:37:33.259Z,20.91
2016-10-18T10:38:33.230Z,20.93
2016-10-18T10:39:33.225Z,20.97
2016-10-18T10:40:32.886Z,20.91
2016-10-18T10:41:33.190Z,20.93
2016-10-18T10:42:33.173Z,21.01
2016-10-18T10:43:33.164Z,20.97
2016-10-18T10:44:32.828Z,20.98
2016-10-18T10:45:33.128Z,20.91
2016-10-18T10:46:32.793Z,20.91
2016-10-18T10:47:33.096Z,20.97
2016-10-18T10:48:32.763Z,20.91
2016-10-18T10:49:33.059Z,20.9
2016-10-18T10:50:32.732Z,20.94
2016-10-18T10:51:33.027Z,20.97
2016-10-18T10:52:33.016Z,20.97
2016-10-18T10:53:32.994Z,21.01
2016-10-18T10:54:32.979Z,20.94
2016-10-18T10:55:32.968Z,20.96
2016-10-18T10:56:32.991Z,20.94
2016-10-18T10:57:32.934Z,20.98
2016-10-18T10:58:32.291Z,21.01
2016-10-18T10:59:32.589Z,20.97
2016-10-18T11:00:32.884Z,21
2016-10-18T11:01:32.873Z,20.94
2016-10-18T11:02:32.863Z,21.06
2016-10-18T11:03:32.531Z,20.97
2016-10-18T11:04:32.511Z,21
2016-10-18T11:05:32.806Z,21.01
2016-10-18T11:06:32.474Z,20.96
2016-10-18T11:07:32.777Z,21.01
2016-10-18T11:08:32.752Z,20.96
2016-10-18T11:09:32.748Z,20.94
2016-10-18T11:10:32.413Z,20.85
2016-10-18T11:11:32.719Z,20.85
2016-10-18T11:12:32.704Z,20.85
2016-10-18T11:13:32.683Z,20.9
2016-10-18T11:14:32.666Z,20.9
2016-10-18T11:15:32.650Z,20.94
2016-10-18T11:16:32.672Z,20.91
2016-10-18T11:17:32.616Z,20.87
2016-10-18T11:18:32.600Z,20.9
2016-10-18T11:19:32.581Z,20.88
2016-10-18T11:20:32.568Z,20.81
2016-10-18T11:21:32.565Z,20.87
2016-10-18T11:22:32.231Z,20.75
2016-10-18T11:23:32.212Z,20.93
2016-10-18T11:24:32.504Z,20.88
2016-10-18T11:25:32.491Z,20.85
2016-10-18T11:26:32.470Z,20.83
2016-10-18T11:27:32.460Z,20.85
2016-10-18T11:28:32.439Z,20.85
2016-10-18T11:29:32.116Z,20.81
2016-10-18T11:30:32.408Z,20.85
2016-10-18T11:31:32.073Z,20.87
2016-10-18T11:32:32.064Z,20.85
2016-10-18T11:33:32.040Z,20.78
2016-10-18T11:34:32.036Z,20.88
2016-10-18T11:35:32.326Z,20.85
2016-10-18T11:36:32.311Z,20.87
2016-10-18T11:37:32.296Z,20.93
2016-10-18T11:38:31.650Z,20.94
2016-10-18T11:39:32.267Z,20.85
2016-10-18T11:40:32.268Z,20.85
2016-10-18T11:41:32.241Z,20.87
2016-10-18T11:42:31.902Z,20.9
2016-10-18T11:43:32.198Z,20.87
2016-10-18T11:44:32.187Z,20.87
2016-10-18T11:45:32.180Z,20.73
2016-10-18T11:46:32.149Z,20.93
2016-10-18T11:47:32.142Z,20.9
2016-10-18T11:48:32.118Z,20.9
2016-10-18T11:49:32.933Z,20.91
2016-10-18T11:50:32.100Z,20.71
2016-10-18T11:51:31.755Z,20.88
2016-10-18T11:52:32.072Z,20.88
2016-10-18T11:53:32.047Z,20.79
2016-10-18T11:54:32.027Z,20.87
2016-10-18T11:55:31.698Z,20.78
2016-10-18T11:56:31.996Z,20.87
2016-10-18T11:57:31.663Z,20.88
2016-10-18T11:58:31.646Z,20.85
2016-10-18T11:59:31.629Z,20.88
2016-10-18T12:00:31.617Z,20.87
2016-10-18T12:01:31.928Z,20.81
2016-10-18T12:02:31.585Z,20.82
2016-10-18T12:03:31.886Z,20.85
2016-10-18T12:04:31.871Z,20.9
2016-10-18T12:05:31.865Z,20.91
2016-10-18T12:06:31.520Z,20.73
2016-10-18T12:07:31.823Z,20.87
2016-10-18T12:08:31.826Z,20.83
2016-10-18T12:09:31.474Z,20.9
2016-10-18T12:10:31.461Z,20.72
2016-10-18T12:11:31.763Z,20.9
2016-10-18T12:12:31.749Z,20.85
2016-10-18T12:13:31.726Z,20.85
2016-10-18T12:14:31.717Z,20.87
2016-10-18T12:15:31.694Z,20.87
2016-10-18T12:16:31.372Z,20.85
2016-10-18T12:17:31.665Z,20.9
2016-10-18T12:18:31.654Z,20.83
2016-10-18T12:19:31.627Z,20.76
2016-10-18T12:20:31.621Z,20.88
2016-10-18T12:21:31.603Z,20.83
2016-10-18T12:22:31.588Z,20.88
2016-10-18T12:23:31.571Z,20.91
2016-10-18T12:24:31.553Z,20.87
2016-10-18T12:25:31.532Z,20.83
2016-10-18T12:26:31.520Z,20.93
2016-10-18T12:27:31.192Z,20.88
2016-10-18T12:28:31.176Z,20.9
2016-10-18T12:29:31.470Z,20.71
2016-10-18T12:30:31.146Z,20.87
2016-10-18T12:31:31.446Z,20.93
2016-10-18T12:32:31.424Z,20.83
2016-10-18T12:33:31.422Z,20.91
2016-10-18T12:34:31.077Z,20.9
2016-10-18T12:35:31.378Z,20.9
2016-10-18T12:36:31.378Z,20.9
2016-10-18T12:37:31.032Z,20.91
2016-10-18T12:38:31.025Z,20.93
2016-10-18T12:39:31.310Z,20.83
2016-10-18T12:40:31.298Z,20.94
2016-10-18T12:41:31.324Z,20.87
2016-10-18T12:42:31.276Z,20.83
2016-10-18T12:43:30.933Z,20.88
2016-10-18T12:44:31.240Z,20.94
2016-10-18T12:45:31.220Z,20.76
2016-10-18T12:46:31.199Z,20.41
2016-10-18T12:47:31.190Z,20.25
2016-10-18T12:48:30.854Z,19.97
2016-10-18T12:49:31.155Z,19.94
2016-10-18T12:50:31.135Z,20.16
2016-10-18T12:51:30.821Z,20.34
2016-10-18T12:52:31.110Z,20.33
2016-10-18T12:53:31.109Z,20.51
2016-10-18T12:54:31.080Z,20.44
2016-10-18T12:55:31.060Z,20.61